sensor_id;sensor_type;location;lat;lon;timestamp;P1;durP1;ratioP1;P2;durP2;ratioP2
41946;SDS011;27638;42.184;24.848;2023-03-14T00:01:08;10.23;;;5.40;;
41946;SDS011;27638;42.184;24.848;2023-03-14T00:03:38;8.90;;;4.25;;
41946;SDS011;27638;42.184;24.848;2023-03-14T00:06:07;5.13;;;3.90;;
41946;SDS011;27638;42.184;24.848;2023-03-14T00:08:33;10.03;;;4.27;;
41946;SDS011;27638;42.184;24.848;2023-03-14T00:11:04;7.63;;;4.70;;
41946;SDS011;27638;42.184;24.848;2023-03-14T00:13:39;8.15;;;4.88;;
41946;SDS011;27638;42.184;24.848;2023-03-14T00:16:05;8.38;;;4.28;;
41946;SDS011;27638;42.184;24.848;2023-03-14T00:18:33;8.45;;;4.63;;
41946;SDS011;27638;42.184;24.848;2023-03-14T00:20:59;10.07;;;5.35;;
41946;SDS011;27638;42.184;24.848;2023-03-14T00:23:26;9.40;;;4.80;;
41946;SDS011;27638;42.184;24.848;2023-03-14T00:25:53;8.02;;;5.38;;
41946;SDS011;27638;42.184;24.848;2023-03-14T00:28:18;9.07;;;5.40;;
41946;SDS011;27638;42.184;24.848;2023-03-14T00:30:44;6.63;;;4.22;;
41946;SDS011;27638;42.184;24.848;2023-03-14T00:33:09;6.75;;;4.38;;
41946;SDS011;27638;42.184;24.848;2023-03-14T00:35:34;6.20;;;4.28;;
41946;SDS011;27638;42.184;24.848;2023-03-14T00:38:00;6.90;;;4.05;;
41946;SDS011;27638;42.184;24.848;2023-03-14T00:40:25;5.63;;;4.00;;
41946;SDS011;27638;42.184;24.848;2023-03-14T00:42:51;6.57;;;4.35;;
41946;SDS011;27638;42.184;24.848;2023-03-14T00:45:16;4.07;;;2.92;;
41946;SDS011;27638;42.184;24.848;2023-03-14T00:47:41;4.90;;;3.88;;
41946;SDS011;27638;42.184;24.848;2023-03-14T00:50:10;6.90;;;4.10;;
41946;SDS011;27638;42.184;24.848;2023-03-14T00:52:36;5.35;;;3.63;;
41946;SDS011;27638;42.184;24.848;2023-03-14T00:55:02;7.63;;;4.30;;
41946;SDS011;27638;42.184;24.848;2023-03-14T00:57:28;10.75;;;5.85;;
41946;SDS011;27638;42.184;24.848;2023-03-14T00:59:53;7.63;;;4.15;;
41946;SDS011;27638;42.184;24.848;2023-03-14T01:02:19;7.75;;;4.45;;
41946;SDS011;27638;42.184;24.848;2023-03-14T01:04:44;6.43;;;4.00;;
41946;SDS011;27638;42.184;24.848;2023-03-14T01:07:12;5.65;;;4.30;;
41946;SDS011;27638;42.184;24.848;2023-03-14T01:09:38;5.95;;;4.05;;
41946;SDS011;27638;42.184;24.848;2023-03-14T01:12:03;5.10;;;3.50;;
41946;SDS011;27638;42.184;24.848;2023-03-14T01:14:29;6.68;;;3.75;;
41946;SDS011;27638;42.184;24.848;2023-03-14T01:16:54;6.32;;;4.20;;
41946;SDS011;27638;42.184;24.848;2023-03-14T01:19:25;7.45;;;3.47;;
41946;SDS011;27638;42.184;24.848;2023-03-14T01:21:54;6.18;;;4.10;;
41946;SDS011;27638;42.184;24.848;2023-03-14T01:24:19;8.15;;;4.40;;
41946;SDS011;27638;42.184;24.848;2023-03-14T01:26:45;6.72;;;4.30;;
41946;SDS011;27638;42.184;24.848;2023-03-14T01:29:11;12.77;;;5.70;;
41946;SDS011;27638;42.184;24.848;2023-03-14T01:31:36;10.45;;;5.63;;
41946;SDS011;27638;42.184;24.848;2023-03-14T01:34:02;10.27;;;5.20;;
41946;SDS011;27638;42.184;24.848;2023-03-14T01:36:27;8.90;;;4.50;;
41946;SDS011;27638;42.184;24.848;2023-03-14T01:38:53;10.95;;;5.03;;
41946;SDS011;27638;42.184;24.848;2023-03-14T01:41:20;9.48;;;4.68;;
41946;SDS011;27638;42.184;24.848;2023-03-14T01:43:48;9.48;;;5.53;;
41946;SDS011;27638;42.184;24.848;2023-03-14T01:51:12;10.68;;;6.03;;
41946;SDS011;27638;42.184;24.848;2023-03-14T01:53:42;7.00;;;4.90;;
41946;SDS011;27638;42.184;24.848;2023-03-14T01:56:09;9.10;;;5.68;;
41946;SDS011;27638;42.184;24.848;2023-03-14T01:58:36;8.77;;;5.22;;
41946;SDS011;27638;42.184;24.848;2023-03-14T02:01:05;11.40;;;5.30;;
41946;SDS011;27638;42.184;24.848;2023-03-14T02:03:32;8.38;;;5.30;;
41946;SDS011;27638;42.184;24.848;2023-03-14T02:06:08;8.98;;;5.32;;
41946;SDS011;27638;42.184;24.848;2023-03-14T02:08:35;11.10;;;5.68;;
41946;SDS011;27638;42.184;24.848;2023-03-14T02:11:02;10.63;;;6.07;;
41946;SDS011;27638;42.184;24.848;2023-03-14T02:13:29;7.90;;;5.38;;
41946;SDS011;27638;42.184;24.848;2023-03-14T02:15:54;11.32;;;5.43;;
41946;SDS011;27638;42.184;24.848;2023-03-14T02:18:19;14.98;;;6.32;;
41946;SDS011;27638;42.184;24.848;2023-03-14T02:23:41;9.95;;;5.32;;
41946;SDS011;27638;42.184;24.848;2023-03-14T02:26:28;12.25;;;6.30;;
41946;SDS011;27638;42.184;24.848;2023-03-14T02:28:59;8.90;;;5.43;;
41946;SDS011;27638;42.184;24.848;2023-03-14T02:31:25;7.93;;;5.60;;
41946;SDS011;27638;42.184;24.848;2023-03-14T02:33:50;9.98;;;5.57;;
41946;SDS011;27638;42.184;24.848;2023-03-14T02:36:16;8.80;;;6.07;;
41946;SDS011;27638;42.184;24.848;2023-03-14T02:41:18;10.57;;;5.85;;
41946;SDS011;27638;42.184;24.848;2023-03-14T02:43:44;9.88;;;7.03;;
41946;SDS011;27638;42.184;24.848;2023-03-14T02:46:10;10.00;;;6.60;;
41946;SDS011;27638;42.184;24.848;2023-03-14T02:48:42;12.13;;;7.18;;
41946;SDS011;27638;42.184;24.848;2023-03-14T02:51:11;13.95;;;6.97;;
41946;SDS011;27638;42.184;24.848;2023-03-14T02:53:37;24.55;;;11.63;;
41946;SDS011;27638;42.184;24.848;2023-03-14T02:56:03;53.83;;;23.48;;
41946;SDS011;27638;42.184;24.848;2023-03-14T02:58:30;35.83;;;14.93;;
41946;SDS011;27638;42.184;24.848;2023-03-14T03:00:55;20.35;;;9.10;;
41946;SDS011;27638;42.184;24.848;2023-03-14T03:03:21;11.25;;;6.68;;
41946;SDS011;27638;42.184;24.848;2023-03-14T03:05:50;13.88;;;7.32;;
41946;SDS011;27638;42.184;24.848;2023-03-14T03:08:18;25.35;;;11.30;;
41946;SDS011;27638;42.184;24.848;2023-03-14T03:10:45;33.25;;;15.27;;
41946;SDS011;27638;42.184;24.848;2023-03-14T03:13:10;21.35;;;9.50;;
41946;SDS011;27638;42.184;24.848;2023-03-14T03:15:36;17.92;;;9.07;;
41946;SDS011;27638;42.184;24.848;2023-03-14T03:18:01;14.73;;;9.02;;
41946;SDS011;27638;42.184;24.848;2023-03-14T03:20:27;15.32;;;7.72;;
41946;SDS011;27638;42.184;24.848;2023-03-14T03:22:53;13.32;;;7.57;;
41946;SDS011;27638;42.184;24.848;2023-03-14T03:25:18;15.70;;;8.27;;
41946;SDS011;27638;42.184;24.848;2023-03-14T03:27:44;14.27;;;7.30;;
41946;SDS011;27638;42.184;24.848;2023-03-14T03:30:09;11.50;;;6.68;;
41946;SDS011;27638;42.184;24.848;2023-03-14T03:32:35;12.55;;;6.63;;
41946;SDS011;27638;42.184;24.848;2023-03-14T03:35:02;14.00;;;7.03;;
41946;SDS011;27638;42.184;24.848;2023-03-14T03:37:30;13.18;;;6.15;;
41946;SDS011;27638;42.184;24.848;2023-03-14T03:39:56;40.63;;;16.55;;
41946;SDS011;27638;42.184;24.848;2023-03-14T03:42:21;16.65;;;7.88;;
41946;SDS011;27638;42.184;24.848;2023-03-14T03:44:47;18.58;;;9.38;;
41946;SDS011;27638;42.184;24.848;2023-03-14T03:47:13;12.43;;;6.25;;
41946;SDS011;27638;42.184;24.848;2023-03-14T03:49:38;9.55;;;5.45;;
41946;SDS011;27638;42.184;24.848;2023-03-14T03:52:04;9.20;;;4.70;;
41946;SDS011;27638;42.184;24.848;2023-03-14T03:54:29;5.72;;;4.60;;
41946;SDS011;27638;42.184;24.848;2023-03-14T03:56:55;8.55;;;4.80;;
41946;SDS011;27638;42.184;24.848;2023-03-14T03:59:20;7.10;;;4.97;;
41946;SDS011;27638;42.184;24.848;2023-03-14T04:01:46;6.38;;;3.75;;
41946;SDS011;27638;42.184;24.848;2023-03-14T04:04:12;9.88;;;5.47;;
41946;SDS011;27638;42.184;24.848;2023-03-14T04:06:38;8.85;;;5.63;;
41946;SDS011;27638;42.184;24.848;2023-03-14T04:09:03;10.68;;;6.05;;
41946;SDS011;27638;42.184;24.848;2023-03-14T04:11:29;9.68;;;5.38;;
41946;SDS011;27638;42.184;24.848;2023-03-14T04:13:55;7.65;;;5.57;;
41946;SDS011;27638;42.184;24.848;2023-03-14T04:16:21;10.32;;;5.50;;
41946;SDS011;27638;42.184;24.848;2023-03-14T04:18:48;8.23;;;5.07;;
41946;SDS011;27638;42.184;24.848;2023-03-14T04:21:14;11.35;;;5.40;;
41946;SDS011;27638;42.184;24.848;2023-03-14T04:23:40;10.73;;;5.90;;
41946;SDS011;27638;42.184;24.848;2023-03-14T04:26:05;7.60;;;5.47;;
41946;SDS011;27638;42.184;24.848;2023-03-14T04:28:31;9.10;;;6.30;;
41946;SDS011;27638;42.184;24.848;2023-03-14T04:30:56;9.15;;;5.90;;
41946;SDS011;27638;42.184;24.848;2023-03-14T04:33:22;12.82;;;5.55;;
41946;SDS011;27638;42.184;24.848;2023-03-14T04:35:48;10.07;;;5.13;;
41946;SDS011;27638;42.184;24.848;2023-03-14T04:38:15;10.20;;;5.65;;
41946;SDS011;27638;42.184;24.848;2023-03-14T04:40:41;8.80;;;5.13;;
41946;SDS011;27638;42.184;24.848;2023-03-14T04:43:07;8.50;;;5.57;;
41946;SDS011;27638;42.184;24.848;2023-03-14T04:45:34;30.27;;;13.88;;
41946;SDS011;27638;42.184;24.848;2023-03-14T04:48:00;18.92;;;8.10;;
41946;SDS011;27638;42.184;24.848;2023-03-14T04:50:25;10.35;;;6.65;;
41946;SDS011;27638;42.184;24.848;2023-03-14T04:52:51;64.15;;;20.25;;
41946;SDS011;27638;42.184;24.848;2023-03-14T04:55:16;27.98;;;11.23;;
41946;SDS011;27638;42.184;24.848;2023-03-14T04:57:42;16.40;;;6.57;;
41946;SDS011;27638;42.184;24.848;2023-03-14T05:00:07;13.45;;;6.30;;
41946;SDS011;27638;42.184;24.848;2023-03-14T05:02:33;10.10;;;6.80;;
41946;SDS011;27638;42.184;24.848;2023-03-14T05:05:00;8.52;;;5.25;;
41946;SDS011;27638;42.184;24.848;2023-03-14T05:07:25;13.10;;;5.93;;
41946;SDS011;27638;42.184;24.848;2023-03-14T05:09:51;10.85;;;5.50;;
41946;SDS011;27638;42.184;24.848;2023-03-14T05:12:18;9.65;;;5.72;;
41946;SDS011;27638;42.184;24.848;2023-03-14T05:14:44;9.48;;;5.72;;
41946;SDS011;27638;42.184;24.848;2023-03-14T05:17:09;9.73;;;5.03;;
41946;SDS011;27638;42.184;24.848;2023-03-14T05:19:36;9.48;;;5.38;;
41946;SDS011;27638;42.184;24.848;2023-03-14T05:22:02;11.85;;;5.13;;
41946;SDS011;27638;42.184;24.848;2023-03-14T05:24:27;8.60;;;4.50;;
41946;SDS011;27638;42.184;24.848;2023-03-14T05:26:53;7.18;;;4.85;;
41946;SDS011;27638;42.184;24.848;2023-03-14T05:29:18;7.65;;;4.53;;
41946;SDS011;27638;42.184;24.848;2023-03-14T05:31:43;7.82;;;4.40;;
41946;SDS011;27638;42.184;24.848;2023-03-14T05:34:09;8.85;;;4.78;;
41946;SDS011;27638;42.184;24.848;2023-03-14T05:36:34;8.13;;;5.15;;
41946;SDS011;27638;42.184;24.848;2023-03-14T05:39:00;8.65;;;5.35;;
41946;SDS011;27638;42.184;24.848;2023-03-14T05:41:25;9.80;;;5.10;;
41946;SDS011;27638;42.184;24.848;2023-03-14T05:43:51;8.95;;;5.00;;
41946;SDS011;27638;42.184;24.848;2023-03-14T05:46:16;9.30;;;5.22;;
41946;SDS011;27638;42.184;24.848;2023-03-14T05:48:42;16.00;;;8.15;;
41946;SDS011;27638;42.184;24.848;2023-03-14T05:51:07;12.23;;;7.80;;
41946;SDS011;27638;42.184;24.848;2023-03-14T05:53:32;11.75;;;7.03;;
41946;SDS011;27638;42.184;24.848;2023-03-14T05:55:58;11.55;;;6.90;;
41946;SDS011;27638;42.184;24.848;2023-03-14T05:58:23;13.18;;;8.40;;
41946;SDS011;27638;42.184;24.848;2023-03-14T06:00:49;16.88;;;8.77;;
41946;SDS011;27638;42.184;24.848;2023-03-14T06:03:15;14.57;;;8.10;;
41946;SDS011;27638;42.184;24.848;2023-03-14T06:05:40;16.02;;;8.98;;
41946;SDS011;27638;42.184;24.848;2023-03-14T06:08:06;21.75;;;9.75;;
41946;SDS011;27638;42.184;24.848;2023-03-14T06:10:31;16.13;;;8.90;;
41946;SDS011;27638;42.184;24.848;2023-03-14T06:12:57;18.85;;;10.20;;
41946;SDS011;27638;42.184;24.848;2023-03-14T06:15:23;12.27;;;9.07;;
41946;SDS011;27638;42.184;24.848;2023-03-14T06:17:48;22.35;;;10.75;;
41946;SDS011;27638;42.184;24.848;2023-03-14T06:20:14;14.40;;;8.50;;
41946;SDS011;27638;42.184;24.848;2023-03-14T06:22:39;21.63;;;11.30;;
41946;SDS011;27638;42.184;24.848;2023-03-14T06:25:05;30.20;;;13.40;;
41946;SDS011;27638;42.184;24.848;2023-03-14T06:27:32;15.65;;;8.13;;
41946;SDS011;27638;42.184;24.848;2023-03-14T06:29:57;15.65;;;8.50;;
41946;SDS011;27638;42.184;24.848;2023-03-14T06:32:23;12.15;;;7.63;;
41946;SDS011;27638;42.184;24.848;2023-03-14T06:34:49;13.02;;;8.05;;
41946;SDS011;27638;42.184;24.848;2023-03-14T06:37:15;14.55;;;8.32;;
41946;SDS011;27638;42.184;24.848;2023-03-14T06:39:40;9.45;;;7.13;;
41946;SDS011;27638;42.184;24.848;2023-03-14T06:42:06;14.88;;;7.03;;
41946;SDS011;27638;42.184;24.848;2023-03-14T06:44:31;13.50;;;6.30;;
41946;SDS011;27638;42.184;24.848;2023-03-14T06:46:57;13.80;;;10.68;;
41946;SDS011;27638;42.184;24.848;2023-03-14T06:49:22;17.75;;;14.45;;
41946;SDS011;27638;42.184;24.848;2023-03-14T06:51:48;13.15;;;10.48;;
41946;SDS011;27638;42.184;24.848;2023-03-14T06:54:13;11.88;;;8.07;;
41946;SDS011;27638;42.184;24.848;2023-03-14T06:56:39;12.65;;;6.70;;
41946;SDS011;27638;42.184;24.848;2023-03-14T06:59:04;12.57;;;8.45;;
41946;SDS011;27638;42.184;24.848;2023-03-14T07:01:30;13.15;;;6.65;;
41946;SDS011;27638;42.184;24.848;2023-03-14T07:03:57;13.90;;;6.70;;
41946;SDS011;27638;42.184;24.848;2023-03-14T07:06:23;12.30;;;6.70;;
41946;SDS011;27638;42.184;24.848;2023-03-14T07:08:49;11.48;;;6.30;;
41946;SDS011;27638;42.184;24.848;2023-03-14T07:11:14;11.13;;;6.45;;
41946;SDS011;27638;42.184;24.848;2023-03-14T07:13:40;7.45;;;5.50;;
41946;SDS011;27638;42.184;24.848;2023-03-14T07:16:06;10.90;;;7.07;;
41946;SDS011;27638;42.184;24.848;2023-03-14T07:18:32;10.45;;;6.45;;
41946;SDS011;27638;42.184;24.848;2023-03-14T07:20:58;10.52;;;5.82;;
41946;SDS011;27638;42.184;24.848;2023-03-14T07:23:23;6.85;;;5.50;;
41946;SDS011;27638;42.184;24.848;2023-03-14T07:25:49;10.73;;;5.93;;
41946;SDS011;27638;42.184;24.848;2023-03-14T07:28:16;7.18;;;4.97;;
41946;SDS011;27638;42.184;24.848;2023-03-14T07:30:41;9.45;;;5.80;;
41946;SDS011;27638;42.184;24.848;2023-03-14T07:33:07;10.15;;;5.72;;
41946;SDS011;27638;42.184;24.848;2023-03-14T07:35:32;8.85;;;5.78;;
41946;SDS011;27638;42.184;24.848;2023-03-14T07:37:58;10.07;;;5.70;;
41946;SDS011;27638;42.184;24.848;2023-03-14T07:40:23;10.40;;;6.18;;
41946;SDS011;27638;42.184;24.848;2023-03-14T07:42:48;9.70;;;5.82;;
41946;SDS011;27638;42.184;24.848;2023-03-14T07:45:14;10.75;;;6.18;;
41946;SDS011;27638;42.184;24.848;2023-03-14T07:47:40;7.80;;;5.28;;
41946;SDS011;27638;42.184;24.848;2023-03-14T07:50:05;9.68;;;5.75;;
41946;SDS011;27638;42.184;24.848;2023-03-14T07:52:32;9.48;;;5.68;;
41946;SDS011;27638;42.184;24.848;2023-03-14T07:54:57;9.40;;;6.80;;
41946;SDS011;27638;42.184;24.848;2023-03-14T07:57:23;14.60;;;8.18;;
41946;SDS011;27638;42.184;24.848;2023-03-14T07:59:49;14.10;;;8.68;;
41946;SDS011;27638;42.184;24.848;2023-03-14T08:02:15;12.45;;;8.70;;
41946;SDS011;27638;42.184;24.848;2023-03-14T08:04:40;15.70;;;8.30;;
41946;SDS011;27638;42.184;24.848;2023-03-14T08:07:06;11.70;;;6.82;;
41946;SDS011;27638;42.184;24.848;2023-03-14T08:09:32;14.10;;;7.88;;
41946;SDS011;27638;42.184;24.848;2023-03-14T08:11:57;13.43;;;8.50;;
41946;SDS011;27638;42.184;24.848;2023-03-14T08:14:23;20.02;;;11.32;;
41946;SDS011;27638;42.184;24.848;2023-03-14T08:16:51;11.05;;;8.48;;
41946;SDS011;27638;42.184;24.848;2023-03-14T08:19:17;13.38;;;8.18;;
41946;SDS011;27638;42.184;24.848;2023-03-14T08:21:42;14.30;;;7.78;;
41946;SDS011;27638;42.184;24.848;2023-03-14T08:24:08;12.50;;;8.00;;
41946;SDS011;27638;42.184;24.848;2023-03-14T08:26:33;10.15;;;6.10;;
41946;SDS011;27638;42.184;24.848;2023-03-14T08:28:59;11.95;;;7.15;;
41946;SDS011;27638;42.184;24.848;2023-03-14T08:31:24;9.95;;;5.80;;
41946;SDS011;27638;42.184;24.848;2023-03-14T08:33:50;8.98;;;6.88;;
41946;SDS011;27638;42.184;24.848;2023-03-14T08:36:17;10.45;;;5.93;;
41946;SDS011;27638;42.184;24.848;2023-03-14T08:38:43;11.30;;;6.40;;
41946;SDS011;27638;42.184;24.848;2023-03-14T08:41:09;10.07;;;6.38;;
41946;SDS011;27638;42.184;24.848;2023-03-14T08:43:35;10.52;;;6.60;;
41946;SDS011;27638;42.184;24.848;2023-03-14T08:46:01;8.63;;;6.25;;
41946;SDS011;27638;42.184;24.848;2023-03-14T08:48:28;10.35;;;6.47;;
41946;SDS011;27638;42.184;24.848;2023-03-14T08:50:55;8.80;;;5.82;;
41946;SDS011;27638;42.184;24.848;2023-03-14T08:53:21;10.02;;;5.72;;
41946;SDS011;27638;42.184;24.848;2023-03-14T08:55:51;8.10;;;5.75;;
41946;SDS011;27638;42.184;24.848;2023-03-14T08:58:18;11.15;;;6.10;;
41946;SDS011;27638;42.184;24.848;2023-03-14T09:00:43;8.98;;;6.15;;
41946;SDS011;27638;42.184;24.848;2023-03-14T09:03:08;8.63;;;5.25;;
41946;SDS011;27638;42.184;24.848;2023-03-14T09:05:34;8.75;;;5.63;;
41946;SDS011;27638;42.184;24.848;2023-03-14T09:07:59;8.52;;;5.32;;
41946;SDS011;27638;42.184;24.848;2023-03-14T09:10:25;8.77;;;5.57;;
41946;SDS011;27638;42.184;24.848;2023-03-14T09:12:51;7.97;;;5.90;;
41946;SDS011;27638;42.184;24.848;2023-03-14T09:15:16;6.75;;;4.93;;
41946;SDS011;27638;42.184;24.848;2023-03-14T09:17:42;6.13;;;4.45;;
41946;SDS011;27638;42.184;24.848;2023-03-14T09:20:09;6.72;;;4.63;;
41946;SDS011;27638;42.184;24.848;2023-03-14T09:22:35;6.18;;;4.10;;
41946;SDS011;27638;42.184;24.848;2023-03-14T09:25:01;5.60;;;4.50;;
41946;SDS011;27638;42.184;24.848;2023-03-14T09:27:27;6.65;;;3.63;;
41946;SDS011;27638;42.184;24.848;2023-03-14T09:29:52;8.10;;;3.47;;
41946;SDS011;27638;42.184;24.848;2023-03-14T09:32:18;4.47;;;2.70;;
41946;SDS011;27638;42.184;24.848;2023-03-14T09:34:43;4.32;;;2.60;;
41946;SDS011;27638;42.184;24.848;2023-03-14T09:37:09;4.32;;;2.70;;
41946;SDS011;27638;42.184;24.848;2023-03-14T09:39:34;4.00;;;2.88;;
41946;SDS011;27638;42.184;24.848;2023-03-14T09:42:01;3.53;;;2.40;;
41946;SDS011;27638;42.184;24.848;2023-03-14T09:44:34;5.40;;;3.00;;
41946;SDS011;27638;42.184;24.848;2023-03-14T09:47:09;5.32;;;2.95;;
41946;SDS011;27638;42.184;24.848;2023-03-14T09:52:11;3.63;;;2.42;;
41946;SDS011;27638;42.184;24.848;2023-03-14T09:57:17;4.35;;;2.60;;
41946;SDS011;27638;42.184;24.848;2023-03-14T09:59:45;4.68;;;2.78;;
41946;SDS011;27638;42.184;24.848;2023-03-14T10:02:19;6.72;;;3.67;;
41946;SDS011;27638;42.184;24.848;2023-03-14T10:04:49;2.85;;;2.40;;
41946;SDS011;27638;42.184;24.848;2023-03-14T10:07:19;3.33;;;2.60;;
41946;SDS011;27638;42.184;24.848;2023-03-14T10:09:52;53.17;;;19.02;;
41946;SDS011;27638;42.184;24.848;2023-03-14T10:12:18;37.63;;;16.88;;
41946;SDS011;27638;42.184;24.848;2023-03-14T10:14:46;14.18;;;6.05;;
41946;SDS011;27638;42.184;24.848;2023-03-14T10:17:15;5.00;;;2.50;;
41946;SDS011;27638;42.184;24.848;2023-03-14T10:20:00;4.03;;;2.55;;
41946;SDS011;27638;42.184;24.848;2023-03-14T10:22:26;3.50;;;2.45;;
41946;SDS011;27638;42.184;24.848;2023-03-14T10:24:57;3.85;;;2.60;;
41946;SDS011;27638;42.184;24.848;2023-03-14T10:27:33;18.60;;;3.65;;
41946;SDS011;27638;42.184;24.848;2023-03-14T10:30:02;3.85;;;2.40;;
41946;SDS011;27638;42.184;24.848;2023-03-14T10:32:37;5.10;;;2.60;;
41946;SDS011;27638;42.184;24.848;2023-03-14T10:37:53;3.08;;;2.08;;
41946;SDS011;27638;42.184;24.848;2023-03-14T10:40:46;4.22;;;2.50;;
41946;SDS011;27638;42.184;24.848;2023-03-14T10:43:15;6.05;;;2.67;;
41946;SDS011;27638;42.184;24.848;2023-03-14T10:45:56;10.15;;;3.85;;
41946;SDS011;27638;42.184;24.848;2023-03-14T10:48:37;6.47;;;2.85;;
41946;SDS011;27638;42.184;24.848;2023-03-14T10:51:25;8.10;;;3.13;;
41946;SDS011;27638;42.184;24.848;2023-03-14T10:56:23;3.88;;;2.85;;
41946;SDS011;27638;42.184;24.848;2023-03-14T10:58:51;4.65;;;2.92;;
41946;SDS011;27638;42.184;24.848;2023-03-14T11:10:03;3.97;;;2.60;;
41946;SDS011;27638;42.184;24.848;2023-03-14T11:17:52;4.25;;;3.00;;
41946;SDS011;27638;42.184;24.848;2023-03-14T11:20:51;4.65;;;2.90;;
41946;SDS011;27638;42.184;24.848;2023-03-14T11:23:35;4.70;;;3.00;;
41946;SDS011;27638;42.184;24.848;2023-03-14T11:29:12;3.55;;;2.88;;
41946;SDS011;27638;42.184;24.848;2023-03-14T11:31:54;4.10;;;2.50;;
41946;SDS011;27638;42.184;24.848;2023-03-14T11:34:29;6.47;;;3.40;;
41946;SDS011;27638;42.184;24.848;2023-03-14T11:37:14;3.80;;;2.78;;
41946;SDS011;27638;42.184;24.848;2023-03-14T11:39:47;3.28;;;2.67;;
41946;SDS011;27638;42.184;24.848;2023-03-14T11:42:25;3.97;;;2.92;;
41946;SDS011;27638;42.184;24.848;2023-03-14T11:44:52;4.10;;;2.78;;
41946;SDS011;27638;42.184;24.848;2023-03-14T11:52:34;4.50;;;3.03;;
41946;SDS011;27638;42.184;24.848;2023-03-14T11:57:46;5.72;;;3.28;;
41946;SDS011;27638;42.184;24.848;2023-03-14T12:13:33;5.13;;;3.25;;
41946;SDS011;27638;42.184;24.848;2023-03-14T12:16:06;5.53;;;3.10;;
41946;SDS011;27638;42.184;24.848;2023-03-14T12:18:44;5.40;;;3.67;;
41946;SDS011;27638;42.184;24.848;2023-03-14T12:21:11;4.32;;;3.15;;
41946;SDS011;27638;42.184;24.848;2023-03-14T12:23:41;4.82;;;3.10;;
41946;SDS011;27638;42.184;24.848;2023-03-14T12:26:13;4.25;;;3.30;;
41946;SDS011;27638;42.184;24.848;2023-03-14T12:28:42;6.18;;;3.42;;
41946;SDS011;27638;42.184;24.848;2023-03-14T12:34:02;6.18;;;3.50;;
41946;SDS011;27638;42.184;24.848;2023-03-14T12:36:52;5.53;;;4.10;;
41946;SDS011;27638;42.184;24.848;2023-03-14T12:48:14;5.35;;;3.20;;
41946;SDS011;27638;42.184;24.848;2023-03-14T12:50:44;7.40;;;3.28;;
41946;SDS011;27638;42.184;24.848;2023-03-14T12:56:16;6.38;;;3.90;;
41946;SDS011;27638;42.184;24.848;2023-03-14T13:01:33;6.55;;;3.47;;
41946;SDS011;27638;42.184;24.848;2023-03-14T13:04:18;4.60;;;3.38;;
41946;SDS011;27638;42.184;24.848;2023-03-14T13:11:54;5.05;;;3.28;;
41946;SDS011;27638;42.184;24.848;2023-03-14T13:14:22;4.22;;;3.15;;
41946;SDS011;27638;42.184;24.848;2023-03-14T13:16:48;5.25;;;3.17;;
41946;SDS011;27638;42.184;24.848;2023-03-14T13:19:20;5.13;;;2.97;;
41946;SDS011;27638;42.184;24.848;2023-03-14T13:21:53;5.47;;;3.50;;
41946;SDS011;27638;42.184;24.848;2023-03-14T13:26:52;3.78;;;2.78;;
41946;SDS011;27638;42.184;24.848;2023-03-14T13:31:45;4.93;;;2.72;;
41946;SDS011;27638;42.184;24.848;2023-03-14T13:34:12;4.13;;;2.55;;
41946;SDS011;27638;42.184;24.848;2023-03-14T13:36:37;5.07;;;3.20;;
41946;SDS011;27638;42.184;24.848;2023-03-14T13:39:04;5.05;;;3.00;;
41946;SDS011;27638;42.184;24.848;2023-03-14T13:41:37;3.22;;;2.45;;
41946;SDS011;27638;42.184;24.848;2023-03-14T13:44:05;3.80;;;2.58;;
41946;SDS011;27638;42.184;24.848;2023-03-14T13:46:33;8.05;;;3.28;;
41946;SDS011;27638;42.184;24.848;2023-03-14T13:49:01;4.05;;;2.80;;
41946;SDS011;27638;42.184;24.848;2023-03-14T13:51:29;3.53;;;2.50;;
41946;SDS011;27638;42.184;24.848;2023-03-14T13:54:00;3.92;;;2.72;;
41946;SDS011;27638;42.184;24.848;2023-03-14T13:56:28;3.38;;;2.53;;
41946;SDS011;27638;42.184;24.848;2023-03-14T13:58:56;4.22;;;2.70;;
41946;SDS011;27638;42.184;24.848;2023-03-14T14:03:56;4.45;;;2.67;;
41946;SDS011;27638;42.184;24.848;2023-03-14T14:06:28;3.47;;;2.67;;
41946;SDS011;27638;42.184;24.848;2023-03-14T14:09:14;4.13;;;2.63;;
41946;SDS011;27638;42.184;24.848;2023-03-14T14:14:21;6.00;;;2.90;;
41946;SDS011;27638;42.184;24.848;2023-03-14T14:16:52;3.60;;;2.80;;
41946;SDS011;27638;42.184;24.848;2023-03-14T14:19:19;3.50;;;2.60;;
41946;SDS011;27638;42.184;24.848;2023-03-14T14:21:47;4.85;;;3.20;;
41946;SDS011;27638;42.184;24.848;2023-03-14T14:24:13;3.47;;;2.95;;
41946;SDS011;27638;42.184;24.848;2023-03-14T14:26:40;5.75;;;3.15;;
41946;SDS011;27638;42.184;24.848;2023-03-14T14:29:20;6.45;;;4.18;;
41946;SDS011;27638;42.184;24.848;2023-03-14T14:32:02;6.35;;;3.38;;
41946;SDS011;27638;42.184;24.848;2023-03-14T14:34:28;4.65;;;3.47;;
41946;SDS011;27638;42.184;24.848;2023-03-14T14:36:53;5.55;;;3.45;;
41946;SDS011;27638;42.184;24.848;2023-03-14T14:39:20;6.72;;;4.05;;
41946;SDS011;27638;42.184;24.848;2023-03-14T14:41:48;7.00;;;4.10;;
41946;SDS011;27638;42.184;24.848;2023-03-14T14:44:16;7.82;;;4.00;;
41946;SDS011;27638;42.184;24.848;2023-03-14T14:46:45;3.85;;;3.42;;
41946;SDS011;27638;42.184;24.848;2023-03-14T14:49:16;5.57;;;3.80;;
41946;SDS011;27638;42.184;24.848;2023-03-14T14:51:45;6.53;;;3.85;;
41946;SDS011;27638;42.184;24.848;2023-03-14T14:54:15;6.00;;;3.83;;
41946;SDS011;27638;42.184;24.848;2023-03-14T14:56:46;7.47;;;4.13;;
41946;SDS011;27638;42.184;24.848;2023-03-14T14:59:24;7.20;;;4.95;;
41946;SDS011;27638;42.184;24.848;2023-03-14T15:01:57;6.70;;;4.07;;
41946;SDS011;27638;42.184;24.848;2023-03-14T15:04:24;6.60;;;3.97;;
41946;SDS011;27638;42.184;24.848;2023-03-14T15:06:50;4.60;;;3.10;;
41946;SDS011;27638;42.184;24.848;2023-03-14T15:09:17;4.45;;;3.20;;
41946;SDS011;27638;42.184;24.848;2023-03-14T15:11:45;3.80;;;2.65;;
41946;SDS011;27638;42.184;24.848;2023-03-14T15:14:11;5.63;;;2.55;;
41946;SDS011;27638;42.184;24.848;2023-03-14T15:16:36;6.22;;;2.83;;
41946;SDS011;27638;42.184;24.848;2023-03-14T15:19:08;3.42;;;2.17;;
41946;SDS011;27638;42.184;24.848;2023-03-14T15:21:36;3.33;;;2.05;;
41946;SDS011;27638;42.184;24.848;2023-03-14T15:24:03;3.28;;;1.88;;
41946;SDS011;27638;42.184;24.848;2023-03-14T15:26:30;3.42;;;1.42;;
41946;SDS011;27638;42.184;24.848;2023-03-14T15:28:55;4.68;;;1.70;;
41946;SDS011;27638;42.184;24.848;2023-03-14T15:31:21;2.47;;;1.60;;
41946;SDS011;27638;42.184;24.848;2023-03-14T15:33:47;2.05;;;1.80;;
41946;SDS011;27638;42.184;24.848;2023-03-14T15:36:19;3.10;;;1.83;;
41946;SDS011;27638;42.184;24.848;2023-03-14T15:38:48;4.28;;;1.60;;
41946;SDS011;27638;42.184;24.848;2023-03-14T15:41:15;3.78;;;1.42;;
41946;SDS011;27638;42.184;24.848;2023-03-14T15:43:41;3.63;;;1.50;;
41946;SDS011;27638;42.184;24.848;2023-03-14T15:46:10;1.88;;;1.20;;
41946;SDS011;27638;42.184;24.848;2023-03-14T15:48:36;7.20;;;1.60;;
41946;SDS011;27638;42.184;24.848;2023-03-14T15:51:01;9.90;;;2.10;;
41946;SDS011;27638;42.184;24.848;2023-03-14T15:53:27;16.77;;;2.97;;
41946;SDS011;27638;42.184;24.848;2023-03-14T15:55:52;18.10;;;3.53;;
41946;SDS011;27638;42.184;24.848;2023-03-14T15:58:18;13.50;;;2.75;;
41946;SDS011;27638;42.184;24.848;2023-03-14T16:00:45;13.27;;;3.58;;
41946;SDS011;27638;42.184;24.848;2023-03-14T16:03:11;19.45;;;3.17;;